sensor_id;sensor_type;location;lat;lon;timestamp;P1;durP1;ratioP1;P2;durP2;ratioP2
3309;SDS011;1667;53.238;10.394;2022-08-21T00:03:34;12.83;;;7.60;;
3309;SDS011;1667;53.238;10.394;2022-08-21T00:08:34;12.23;;;11.17;;
3309;SDS011;1667;53.238;10.394;2022-08-21T00:13:32;12.07;;;10.90;;
3309;SDS011;1667;53.238;10.394;2022-08-21T00:18:31;12.13;;;11.03;;
3309;SDS011;1667;53.238;10.394;2022-08-21T00:23:30;13.23;;;11.10;;
3309;SDS011;1667;53.238;10.394;2022-08-21T00:28:31;10.93;;;9.80;;
3309;SDS011;1667;53.238;10.394;2022-08-21T00:33:30;12.00;;;10.83;;
3309;SDS011;1667;53.238;10.394;2022-08-21T00:38:29;9.20;;;7.57;;
3309;SDS011;1667;53.238;10.394;2022-08-21T00:43:37;12.97;;;11.73;;
3309;SDS011;1667;53.238;10.394;2022-08-21T00:48:36;13.80;;;12.57;;
3309;SDS011;1667;53.238;10.394;2022-08-21T00:53:34;13.83;;;12.63;;
3309;SDS011;1667;53.238;10.394;2022-08-21T00:58:36;12.20;;;11.17;;
3309;SDS011;1667;53.238;10.394;2022-08-21T01:03:39;11.93;;;9.63;;
3309;SDS011;1667;53.238;10.394;2022-08-21T01:08:40;12.30;;;11.13;;
3309;SDS011;1667;53.238;10.394;2022-08-21T01:13:43;12.10;;;11.03;;
3309;SDS011;1667;53.238;10.394;2022-08-21T01:18:43;15.87;;;14.40;;
3309;SDS011;1667;53.238;10.394;2022-08-21T01:23:44;12.47;;;11.47;;
3309;SDS011;1667;53.238;10.394;2022-08-21T01:28:47;11.73;;;10.60;;
3309;SDS011;1667;53.238;10.394;2022-08-21T01:33:49;12.03;;;10.50;;
3309;SDS011;1667;53.238;10.394;2022-08-21T01:38:49;8.63;;;7.70;;
3309;SDS011;1667;53.238;10.394;2022-08-21T01:43:48;11.57;;;10.50;;
3309;SDS011;1667;53.238;10.394;2022-08-21T01:48:47;19.73;;;17.80;;
3309;SDS011;1667;53.238;10.394;2022-08-21T01:53:46;12.60;;;11.43;;
3309;SDS011;1667;53.238;10.394;2022-08-21T01:58:48;12.93;;;11.80;;
3309;SDS011;1667;53.238;10.394;2022-08-21T02:03:48;14.10;;;11.60;;
3309;SDS011;1667;53.238;10.394;2022-08-21T02:08:46;12.63;;;11.53;;
3309;SDS011;1667;53.238;10.394;2022-08-21T02:13:46;11.50;;;10.43;;
3309;SDS011;1667;53.238;10.394;2022-08-21T02:18:46;13.07;;;11.73;;
3309;SDS011;1667;53.238;10.394;2022-08-21T02:23:45;13.43;;;12.23;;
3309;SDS011;1667;53.238;10.394;2022-08-21T02:28:44;35.53;;;14.07;;
3309;SDS011;1667;53.238;10.394;2022-08-21T02:33:44;9.40;;;8.40;;
3309;SDS011;1667;53.238;10.394;2022-08-21T02:38:42;15.87;;;14.53;;
3309;SDS011;1667;53.238;10.394;2022-08-21T02:43:41;12.17;;;10.90;;
3309;SDS011;1667;53.238;10.394;2022-08-21T02:48:40;15.33;;;13.13;;
3309;SDS011;1667;53.238;10.394;2022-08-21T02:53:41;9.13;;;7.60;;
3309;SDS011;1667;53.238;10.394;2022-08-21T02:58:41;14.67;;;13.27;;
3309;SDS011;1667;53.238;10.394;2022-08-21T03:03:42;15.97;;;14.10;;
3309;SDS011;1667;53.238;10.394;2022-08-21T03:08:43;11.13;;;10.00;;
3309;SDS011;1667;53.238;10.394;2022-08-21T03:13:44;10.10;;;8.23;;
3309;SDS011;1667;53.238;10.394;2022-08-21T03:18:42;9.83;;;7.60;;
3309;SDS011;1667;53.238;10.394;2022-08-21T03:23:41;16.03;;;14.47;;
3309;SDS011;1667;53.238;10.394;2022-08-21T03:28:41;14.67;;;13.43;;
3309;SDS011;1667;53.238;10.394;2022-08-21T03:33:40;12.60;;;11.33;;
3309;SDS011;1667;53.238;10.394;2022-08-21T03:38:39;17.37;;;15.63;;
3309;SDS011;1667;53.238;10.394;2022-08-21T03:43:39;14.07;;;12.73;;
3309;SDS011;1667;53.238;10.394;2022-08-21T03:48:39;17.33;;;15.50;;
3309;SDS011;1667;53.238;10.394;2022-08-21T03:53:38;12.63;;;9.53;;
3309;SDS011;1667;53.238;10.394;2022-08-21T03:58:36;10.47;;;8.90;;
3309;SDS011;1667;53.238;10.394;2022-08-21T04:03:37;14.70;;;13.13;;
3309;SDS011;1667;53.238;10.394;2022-08-21T04:08:36;11.57;;;7.83;;
3309;SDS011;1667;53.238;10.394;2022-08-21T04:13:34;11.53;;;10.33;;
3309;SDS011;1667;53.238;10.394;2022-08-21T04:18:41;15.87;;;14.27;;
3309;SDS011;1667;53.238;10.394;2022-08-21T04:23:40;15.80;;;14.33;;
3309;SDS011;1667;53.238;10.394;2022-08-21T04:28:39;15.83;;;14.03;;
3309;SDS011;1667;53.238;10.394;2022-08-21T04:33:39;12.30;;;9.70;;
3309;SDS011;1667;53.238;10.394;2022-08-21T04:50:30;16.63;;;15.03;;
3309;SDS011;1667;53.238;10.394;2022-08-21T04:55:35;20.73;;;17.37;;
3309;SDS011;1667;53.238;10.394;2022-08-21T05:00:38;16.40;;;14.83;;
3309;SDS011;1667;53.238;10.394;2022-08-21T05:05:41;25.27;;;23.07;;
3309;SDS011;1667;53.238;10.394;2022-08-21T05:10:54;26.97;;;24.47;;
3309;SDS011;1667;53.238;10.394;2022-08-21T05:16:06;18.87;;;16.93;;
3309;SDS011;1667;53.238;10.394;2022-08-21T05:21:33;15.93;;;14.40;;
3309;SDS011;1667;53.238;10.394;2022-08-21T05:26:32;19.00;;;17.13;;
3309;SDS011;1667;53.238;10.394;2022-08-21T05:31:43;22.40;;;20.30;;
3309;SDS011;1667;53.238;10.394;2022-08-21T05:36:42;38.70;;;36.00;;
3309;SDS011;1667;53.238;10.394;2022-08-21T05:41:41;34.20;;;31.37;;
3309;SDS011;1667;53.238;10.394;2022-08-21T05:46:40;63.43;;;58.43;;
3309;SDS011;1667;53.238;10.394;2022-08-21T05:51:40;38.77;;;35.40;;
3309;SDS011;1667;53.238;10.394;2022-08-21T05:56:39;40.73;;;37.20;;
3309;SDS011;1667;53.238;10.394;2022-08-21T06:01:40;35.53;;;32.50;;
3309;SDS011;1667;53.238;10.394;2022-08-21T06:06:40;28.00;;;25.40;;
3309;SDS011;1667;53.238;10.394;2022-08-21T06:11:39;51.37;;;47.13;;
3309;SDS011;1667;53.238;10.394;2022-08-21T06:16:37;50.30;;;46.60;;
3309;SDS011;1667;53.238;10.394;2022-08-21T06:21:35;37.53;;;34.37;;
3309;SDS011;1667;53.238;10.394;2022-08-21T06:26:35;18.90;;;16.90;;
3309;SDS011;1667;53.238;10.394;2022-08-21T06:31:35;29.27;;;26.87;;
3309;SDS011;1667;53.238;10.394;2022-08-21T06:36:33;22.07;;;19.87;;
3309;SDS011;1667;53.238;10.394;2022-08-21T06:41:31;22.87;;;20.77;;
3309;SDS011;1667;53.238;10.394;2022-08-21T06:46:37;9.97;;;8.20;;
3309;SDS011;1667;53.238;10.394;2022-08-21T06:51:35;29.00;;;27.03;;
3309;SDS011;1667;53.238;10.394;2022-08-21T06:56:33;8.73;;;7.93;;
3309;SDS011;1667;53.238;10.394;2022-08-21T07:01:34;27.03;;;24.83;;
3309;SDS011;1667;53.238;10.394;2022-08-21T07:06:36;20.97;;;19.17;;
3309;SDS011;1667;53.238;10.394;2022-08-21T07:11:35;26.33;;;23.83;;
3309;SDS011;1667;53.238;10.394;2022-08-21T07:16:43;17.07;;;15.67;;
3309;SDS011;1667;53.238;10.394;2022-08-21T07:21:42;14.47;;;9.77;;
3309;SDS011;1667;53.238;10.394;2022-08-21T07:26:41;13.13;;;12.03;;
3309;SDS011;1667;53.238;10.394;2022-08-21T07:31:39;9.73;;;8.60;;
3309;SDS011;1667;53.238;10.394;2022-08-21T07:36:37;28.17;;;25.43;;
3309;SDS011;1667;53.238;10.394;2022-08-21T07:41:37;14.33;;;12.13;;
3309;SDS011;1667;53.238;10.394;2022-08-21T07:46:35;17.60;;;13.37;;
3309;SDS011;1667;53.238;10.394;2022-08-21T07:51:33;9.53;;;7.80;;
3309;SDS011;1667;53.238;10.394;2022-08-21T07:56:32;15.33;;;10.70;;
3309;SDS011;1667;53.238;10.394;2022-08-21T08:01:32;9.03;;;4.83;;
3309;SDS011;1667;53.238;10.394;2022-08-21T08:06:30;6.33;;;3.20;;
3309;SDS011;1667;53.238;10.394;2022-08-21T08:11:28;10.70;;;5.90;;
3309;SDS011;1667;53.238;10.394;2022-08-21T08:16:27;10.60;;;3.80;;
3309;SDS011;1667;53.238;10.394;2022-08-21T08:21:27;8.70;;;3.33;;
3309;SDS011;1667;53.238;10.394;2022-08-21T08:26:25;12.13;;;3.87;;
3309;SDS011;1667;53.238;10.394;2022-08-21T08:31:24;9.80;;;3.23;;
3309;SDS011;1667;53.238;10.394;2022-08-21T08:36:30;9.37;;;3.40;;
3309;SDS011;1667;53.238;10.394;2022-08-21T08:41:35;13.20;;;7.00;;
3309;SDS011;1667;53.238;10.394;2022-08-21T08:46:34;10.17;;;2.80;;
3309;SDS011;1667;53.238;10.394;2022-08-21T08:51:40;9.70;;;3.00;;
3309;SDS011;1667;53.238;10.394;2022-08-21T08:56:48;10.70;;;3.50;;
3309;SDS011;1667;53.238;10.394;2022-08-21T09:01:48;14.47;;;3.00;;
3309;SDS011;1667;53.238;10.394;2022-08-21T09:06:55;9.10;;;2.80;;
3309;SDS011;1667;53.238;10.394;2022-08-21T09:12:05;11.20;;;2.37;;
3309;SDS011;1667;53.238;10.394;2022-08-21T09:17:12;19.03;;;9.73;;
3309;SDS011;1667;53.238;10.394;2022-08-21T09:22:19;17.23;;;5.90;;
3309;SDS011;1667;53.238;10.394;2022-08-21T09:27:25;9.37;;;2.47;;
3309;SDS011;1667;53.238;10.394;2022-08-21T09:32:24;11.63;;;3.17;;
3309;SDS011;1667;53.238;10.394;2022-08-21T09:37:35;14.40;;;2.80;;
3309;SDS011;1667;53.238;10.394;2022-08-21T09:42:53;12.20;;;3.50;;
3309;SDS011;1667;53.238;10.394;2022-08-21T09:47:52;14.43;;;4.20;;
3309;SDS011;1667;53.238;10.394;2022-08-21T09:52:53;14.60;;;3.30;;
3309;SDS011;1667;53.238;10.394;2022-08-21T09:57:55;13.47;;;2.93;;
3309;SDS011;1667;53.238;10.394;2022-08-21T10:02:53;16.50;;;2.60;;
3309;SDS011;1667;53.238;10.394;2022-08-21T10:07:53;17.70;;;3.20;;
3309;SDS011;1667;53.238;10.394;2022-08-21T10:12:53;16.83;;;3.20;;
3309;SDS011;1667;53.238;10.394;2022-08-21T10:18:02;17.37;;;3.20;;
3309;SDS011;1667;53.238;10.394;2022-08-21T10:23:13;19.20;;;5.10;;
3309;SDS011;1667;53.238;10.394;2022-08-21T10:28:35;14.20;;;3.00;;
3309;SDS011;1667;53.238;10.394;2022-08-21T10:33:38;17.27;;;3.67;;
3309;SDS011;1667;53.238;10.394;2022-08-21T10:38:49;17.87;;;2.93;;
3309;SDS011;1667;53.238;10.394;2022-08-21T10:44:20;16.40;;;2.80;;
3309;SDS011;1667;53.238;10.394;2022-08-21T10:49:29;21.23;;;4.77;;
3309;SDS011;1667;53.238;10.394;2022-08-21T10:54:39;18.23;;;4.00;;
3309;SDS011;1667;53.238;10.394;2022-08-21T10:59:51;19.47;;;3.47;;
3309;SDS011;1667;53.238;10.394;2022-08-21T11:04:55;17.63;;;3.30;;
3309;SDS011;1667;53.238;10.394;2022-08-21T11:10:01;16.23;;;2.83;;
3309;SDS011;1667;53.238;10.394;2022-08-21T11:20:28;18.27;;;4.27;;
3309;SDS011;1667;53.238;10.394;2022-08-21T11:25:31;17.73;;;3.00;;
3309;SDS011;1667;53.238;10.394;2022-08-21T11:30:47;19.57;;;3.90;;
3309;SDS011;1667;53.238;10.394;2022-08-21T11:35:56;15.50;;;2.83;;
3309;SDS011;1667;53.238;10.394;2022-08-21T11:41:12;13.77;;;4.20;;
3309;SDS011;1667;53.238;10.394;2022-08-21T11:46:19;17.80;;;3.00;;
3309;SDS011;1667;53.238;10.394;2022-08-21T11:51:26;20.70;;;3.30;;
3309;SDS011;1667;53.238;10.394;2022-08-21T11:56:31;20.57;;;3.00;;
3309;SDS011;1667;53.238;10.394;2022-08-21T12:01:34;20.27;;;3.43;;
3309;SDS011;1667;53.238;10.394;2022-08-21T12:06:37;17.53;;;3.20;;
3309;SDS011;1667;53.238;10.394;2022-08-21T12:11:46;18.47;;;2.93;;
3309;SDS011;1667;53.238;10.394;2022-08-21T12:16:48;17.40;;;2.90;;
3309;SDS011;1667;53.238;10.394;2022-08-21T12:21:48;34.70;;;17.93;;
3309;SDS011;1667;53.238;10.394;2022-08-21T12:26:50;23.00;;;4.67;;
3309;SDS011;1667;53.238;10.394;2022-08-21T12:31:54;21.63;;;4.83;;
3309;SDS011;1667;53.238;10.394;2022-08-21T12:36:57;24.23;;;4.47;;
3309;SDS011;1667;53.238;10.394;2022-08-21T12:42:03;19.83;;;3.00;;
3309;SDS011;1667;53.238;10.394;2022-08-21T12:47:05;36.97;;;19.37;;
3309;SDS011;1667;53.238;10.394;2022-08-21T12:52:14;19.60;;;7.07;;
3309;SDS011;1667;53.238;10.394;2022-08-21T12:57:20;20.47;;;6.23;;
3309;SDS011;1667;53.238;10.394;2022-08-21T13:02:22;19.37;;;4.30;;
3309;SDS011;1667;53.238;10.394;2022-08-21T13:07:27;23.40;;;4.30;;
3309;SDS011;1667;53.238;10.394;2022-08-21T13:12:30;21.47;;;3.70;;
3309;SDS011;1667;53.238;10.394;2022-08-21T13:17:30;24.70;;;5.47;;
3309;SDS011;1667;53.238;10.394;2022-08-21T13:22:39;22.03;;;4.20;;
3309;SDS011;1667;53.238;10.394;2022-08-21T13:27:40;23.23;;;4.63;;
3309;SDS011;1667;53.238;10.394;2022-08-21T13:32:41;23.37;;;4.30;;
3309;SDS011;1667;53.238;10.394;2022-08-21T13:37:44;31.17;;;14.77;;
3309;SDS011;1667;53.238;10.394;2022-08-21T13:42:46;24.70;;;8.20;;
3309;SDS011;1667;53.238;10.394;2022-08-21T13:47:46;26.83;;;6.80;;
3309;SDS011;1667;53.238;10.394;2022-08-21T13:52:48;19.47;;;5.10;;
3309;SDS011;1667;53.238;10.394;2022-08-21T13:58:02;36.07;;;20.20;;
3309;SDS011;1667;53.238;10.394;2022-08-21T14:03:03;36.80;;;18.07;;
3309;SDS011;1667;53.238;10.394;2022-08-21T14:08:04;25.17;;;4.50;;
3309;SDS011;1667;53.238;10.394;2022-08-21T14:13:07;20.93;;;4.10;;
3309;SDS011;1667;53.238;10.394;2022-08-21T14:18:24;25.53;;;5.57;;
3309;SDS011;1667;53.238;10.394;2022-08-21T14:23:23;21.40;;;3.90;;
3309;SDS011;1667;53.238;10.394;2022-08-21T14:28:24;20.23;;;3.90;;
3309;SDS011;1667;53.238;10.394;2022-08-21T14:33:26;23.63;;;5.20;;
3309;SDS011;1667;53.238;10.394;2022-08-21T14:38:26;21.27;;;3.70;;
3309;SDS011;1667;53.238;10.394;2022-08-21T14:43:27;18.20;;;3.33;;
3309;SDS011;1667;53.238;10.394;2022-08-21T14:48:25;21.80;;;4.33;;
3309;SDS011;1667;53.238;10.394;2022-08-21T14:53:26;22.17;;;4.20;;
3309;SDS011;1667;53.238;10.394;2022-08-21T14:58:24;27.53;;;4.57;;
3309;SDS011;1667;53.238;10.394;2022-08-21T15:03:24;19.50;;;3.90;;
3309;SDS011;1667;53.238;10.394;2022-08-21T15:08:23;25.23;;;5.80;;
3309;SDS011;1667;53.238;10.394;2022-08-21T15:13:21;27.80;;;5.90;;
3309;SDS011;1667;53.238;10.394;2022-08-21T15:18:22;21.00;;;3.90;;
3309;SDS011;1667;53.238;10.394;2022-08-21T15:23:22;23.57;;;4.57;;
3309;SDS011;1667;53.238;10.394;2022-08-21T15:28:21;19.43;;;3.90;;
3309;SDS011;1667;53.238;10.394;2022-08-21T15:33:19;18.63;;;3.57;;
3309;SDS011;1667;53.238;10.394;2022-08-21T15:38:19;20.20;;;3.93;;
3309;SDS011;1667;53.238;10.394;2022-08-21T15:43:20;22.30;;;3.50;;
3309;SDS011;1667;53.238;10.394;2022-08-21T15:48:25;17.20;;;3.70;;
3309;SDS011;1667;53.238;10.394;2022-08-21T15:53:26;19.63;;;3.77;;
3309;SDS011;1667;53.238;10.394;2022-08-21T15:58:24;17.40;;;3.00;;
3309;SDS011;1667;53.238;10.394;2022-08-21T16:03:22;20.03;;;3.13;;
3309;SDS011;1667;53.238;10.394;2022-08-21T16:08:22;19.80;;;3.23;;
3309;SDS011;1667;53.238;10.394;2022-08-21T16:13:23;18.30;;;3.07;;
3309;SDS011;1667;53.238;10.394;2022-08-21T16:18:24;17.17;;;2.93;;
3309;SDS011;1667;53.238;10.394;2022-08-21T16:23:23;17.47;;;2.77;;
3309;SDS011;1667;53.238;10.394;2022-08-21T16:28:23;17.40;;;3.27;;
3309;SDS011;1667;53.238;10.394;2022-08-21T16:33:22;18.03;;;2.90;;
3309;SDS011;1667;53.238;10.394;2022-08-21T16:38:26;17.20;;;2.50;;
3309;SDS011;1667;53.238;10.394;2022-08-21T16:43:27;18.23;;;3.40;;
3309;SDS011;1667;53.238;10.394;2022-08-21T16:48:27;18.23;;;2.93;;
3309;SDS011;1667;53.238;10.394;2022-08-21T16:53:27;13.77;;;2.30;;
3309;SDS011;1667;53.238;10.394;2022-08-21T16:58:29;17.10;;;2.37;;
3309;SDS011;1667;53.238;10.394;2022-08-21T17:03:30;16.50;;;3.00;;
3309;SDS011;1667;53.238;10.394;2022-08-21T17:08:30;13.03;;;2.10;;
3309;SDS011;1667;53.238;10.394;2022-08-21T17:13:30;14.63;;;2.27;;
3309;SDS011;1667;53.238;10.394;2022-08-21T17:18:29;12.73;;;2.03;;
3309;SDS011;1667;53.238;10.394;2022-08-21T17:23:27;16.53;;;2.40;;
3309;SDS011;1667;53.238;10.394;2022-08-21T17:28:26;14.53;;;2.10;;
3309;SDS011;1667;53.238;10.394;2022-08-21T17:33:30;14.53;;;2.20;;
3309;SDS011;1667;53.238;10.394;2022-08-21T17:38:33;11.90;;;2.17;;
3309;SDS011;1667;53.238;10.394;2022-08-21T17:43:32;12.93;;;2.07;;
3309;SDS011;1667;53.238;10.394;2022-08-21T17:48:32;11.17;;;1.70;;
3309;SDS011;1667;53.238;10.394;2022-08-21T17:58:47;11.97;;;2.27;;
3309;SDS011;1667;53.238;10.394;2022-08-21T18:03:48;10.70;;;1.80;;
3309;SDS011;1667;53.238;10.394;2022-08-21T18:08:46;11.13;;;2.10;;
3309;SDS011;1667;53.238;10.394;2022-08-21T18:13:45;12.13;;;2.47;;
3309;SDS011;1667;53.238;10.394;2022-08-21T18:18:43;14.77;;;3.73;;
3309;SDS011;1667;53.238;10.394;2022-08-21T18:23:45;13.70;;;4.40;;
3309;SDS011;1667;53.238;10.394;2022-08-21T18:28:43;11.80;;;2.63;;
3309;SDS011;1667;53.238;10.394;2022-08-21T18:33:42;14.00;;;4.60;;
3309;SDS011;1667;53.238;10.394;2022-08-21T18:38:54;14.63;;;4.17;;
3309;SDS011;1667;53.238;10.394;2022-08-21T18:44:13;13.17;;;4.10;;
3309;SDS011;1667;53.238;10.394;2022-08-21T18:49:14;12.50;;;2.50;;
3309;SDS011;1667;53.238;10.394;2022-08-21T18:54:15;10.33;;;2.40;;
3309;SDS011;1667;53.238;10.394;2022-08-21T18:59:13;10.07;;;2.67;;
3309;SDS011;1667;53.238;10.394;2022-08-21T19:04:12;10.73;;;2.73;;
3309;SDS011;1667;53.238;10.394;2022-08-21T19:09:32;13.40;;;4.70;;
3309;SDS011;1667;53.238;10.394;2022-08-21T19:14:30;14.20;;;4.93;;
3309;SDS011;1667;53.238;10.394;2022-08-21T19:19:32;9.67;;;3.57;;
3309;SDS011;1667;53.238;10.394;2022-08-21T19:24:36;11.47;;;3.80;;
3309;SDS011;1667;53.238;10.394;2022-08-21T19:29:34;11.27;;;3.77;;
3309;SDS011;1667;53.238;10.394;2022-08-21T19:34:34;11.60;;;3.73;;
3309;SDS011;1667;53.238;10.394;2022-08-21T19:39:35;9.27;;;3.10;;
3309;SDS011;1667;53.238;10.394;2022-08-21T19:44:41;8.53;;;2.40;;
3309;SDS011;1667;53.238;10.394;2022-08-21T19:49:42;10.63;;;2.77;;
3309;SDS011;1667;53.238;10.394;2022-08-21T19:54:46;8.80;;;2.30;;
3309;SDS011;1667;53.238;10.394;2022-08-21T19:59:45;5.97;;;2.00;;
3309;SDS011;1667;53.238;10.394;2022-08-21T20:04:43;6.63;;;2.23;;
3309;SDS011;1667;53.238;10.394;2022-08-21T20:10:03;7.80;;;2.60;;
3309;SDS011;1667;53.238;10.394;2022-08-21T20:15:06;10.20;;;3.10;;
3309;SDS011;1667;53.238;10.394;2022-08-21T20:20:05;10.10;;;2.87;;
3309;SDS011;1667;53.238;10.394;2022-08-21T20:25:08;5.13;;;2.50;;
3309;SDS011;1667;53.238;10.394;2022-08-21T20:30:09;8.90;;;2.60;;
3309;SDS011;1667;53.238;10.394;2022-08-21T20:35:09;4.80;;;2.33;;
3309;SDS011;1667;53.238;10.394;2022-08-21T20:40:10;7.97;;;4.00;;
3309;SDS011;1667;53.238;10.394;2022-08-21T20:45:10;5.07;;;2.77;;
3309;SDS011;1667;53.238;10.394;2022-08-21T20:50:16;8.73;;;4.33;;
3309;SDS011;1667;53.238;10.394;2022-08-21T20:55:20;10.20;;;4.27;;
3309;SDS011;1667;53.238;10.394;2022-08-21T21:00:24;7.63;;;3.30;;
3309;SDS011;1667;53.238;10.394;2022-08-21T21:05:30;10.77;;;3.20;;
3309;SDS011;1667;53.238;10.394;2022-08-21T21:10:37;8.23;;;3.40;;
3309;SDS011;1667;53.238;10.394;2022-08-21T21:15:40;7.00;;;2.93;;
3309;SDS011;1667;53.238;10.394;2022-08-21T21:20:42;11.10;;;3.70;;
3309;SDS011;1667;53.238;10.394;2022-08-21T21:25:49;9.23;;;3.50;;
3309;SDS011;1667;53.238;10.394;2022-08-21T21:30:54;7.10;;;2.90;;
3309;SDS011;1667;53.238;10.394;2022-08-21T21:35:55;8.40;;;3.00;;
3309;SDS011;1667;53.238;10.394;2022-08-21T21:41:03;9.80;;;3.60;;
3309;SDS011;1667;53.238;10.394;2022-08-21T21:46:12;13.10;;;3.63;;
3309;SDS011;1667;53.238;10.394;2022-08-21T21:51:20;9.77;;;4.13;;
3309;SDS011;1667;53.238;10.394;2022-08-21T21:56:35;8.53;;;4.40;;
3309;SDS011;1667;53.238;10.394;2022-08-21T22:01:40;8.37;;;4.23;;
3309;SDS011;1667;53.238;10.394;2022-08-21T22:06:47;7.20;;;4.03;;
3309;SDS011;1667;53.238;10.394;2022-08-21T22:12:04;8.53;;;3.77;;
3309;SDS011;1667;53.238;10.394;2022-08-21T22:17:27;7.03;;;3.33;;
3309;SDS011;1667;53.238;10.394;2022-08-21T22:22:36;7.20;;;3.97;;
3309;SDS011;1667;53.238;10.394;2022-08-21T22:27:37;9.53;;;4.63;;
3309;SDS011;1667;53.238;10.394;2022-08-21T22:32:38;8.67;;;5.70;;
3309;SDS011;1667;53.238;10.394;2022-08-21T22:37:42;13.40;;;7.80;;
3309;SDS011;1667;53.238;10.394;2022-08-21T22:42:44;11.80;;;5.83;;
3309;SDS011;1667;53.238;10.394;2022-08-21T22:47:54;10.47;;;6.30;;
3309;SDS011;1667;53.238;10.394;2022-08-21T22:53:06;7.90;;;5.67;;
3309;SDS011;1667;53.238;10.394;2022-08-21T22:58:08;13.53;;;7.07;;
3309;SDS011;1667;53.238;10.394;2022-08-21T23:03:12;9.83;;;7.63;;
3309;SDS011;1667;53.238;10.394;2022-08-21T23:08:24;7.83;;;4.60;;
3309;SDS011;1667;53.238;10.394;2022-08-21T23:13:29;9.97;;;6.90;;
3309;SDS011;1667;53.238;10.394;2022-08-21T23:18:39;7.40;;;5.30;;
3309;SDS011;1667;53.238;10.394;2022-08-21T23:23:52;12.13;;;6.93;;
3309;SDS011;1667;53.238;10.394;2022-08-21T23:29:03;11.30;;;5.40;;
3309;SDS011;1667;53.238;10.394;2022-08-21T23:34:21;14.73;;;6.93;;
3309;SDS011;1667;53.238;10.394;2022-08-21T23:39:27;9.43;;;8.03;;
3309;SDS011;1667;53.238;10.394;2022-08-21T23:44:48;11.33;;;10.23;;
3309;SDS011;1667;53.238;10.394;2022-08-21T23:50:03;11.27;;;9.83;;
3309;SDS011;1667;53.238;10.394;2022-08-21T23:55:16;9.83;;;8.83;;
